Time;durP1;ratioP1;P1;durP2;ratioP2;P2;SDS_P1;SDS_P2;PMS_P1;PMS_P2;Temp;Humidity;BMP_temperature;BMP_pressure;BME280_temperature;BME280_humidity;BME280_pressure;Samples;Min_cycle;Max_cycle;Signal;HPM_P1;HPM_P2
2022/03/07 00:01:10;;;;;;;16.55;10.95;;;;;;;6.90;43.90;101554.88;5069865;28;20048;-63
2022/03/07 00:03:37;;;;;;;18.98;11.23;;;;;;;6.91;43.92;101560.03;5069093;28;20056;-62
2022/03/07 00:06:07;;;;;;;17.45;10.75;;;;;;;6.93;43.95;101563.47;5069236;28;20041;-62
2022/03/07 00:08:33;;;;;;;16.45;10.57;;;;;;;6.99;43.70;101560.66;5069325;28;20113;-62
2022/03/07 00:11:05;;;;;;;14.07;9.48;;;;;;;7.09;43.22;101563.03;5069279;28;20058;-62
2022/03/07 00:13:32;;;;;;;16.35;10.48;;;;;;;7.14;43.18;101569.81;5069444;28;20501;-64
2022/03/07 00:16:00;;;;;;;13.23;9.75;;;;;;;7.18;42.92;101565.34;5063457;28;20650;-62
2022/03/07 00:18:27;;;;;;;17.58;10.70;;;;;;;7.21;42.57;101567.03;5069376;28;20500;-62
2022/03/07 00:20:55;;;;;;;17.98;9.88;;;;;;;7.26;42.27;101568.59;5068568;28;20063;-62
2022/03/07 00:23:22;;;;;;;16.25;10.10;;;;;;;7.27;42.33;101567.69;5069098;28;20162;-62
2022/03/07 00:25:49;;;;;;;15.63;10.15;;;;;;;7.30;42.07;101566.75;5068290;28;20044;-62
2022/03/07 00:28:16;;;;;;;18.48;10.27;;;;;;;7.30;41.93;101567.63;5068972;28;20098;-61
2022/03/07 00:30:43;;;;;;;17.40;10.18;;;;;;;7.34;41.82;101581.44;5068584;28;20497;-61
2022/03/07 00:33:10;;;;;;;15.43;10.02;;;;;;;7.33;41.58;101580.56;5068800;28;20128;-60
2022/03/07 00:35:36;;;;;;;14.18;9.60;;;;;;;7.34;41.62;101581.44;5071765;28;20511;-62
2022/03/07 00:38:05;;;;;;;15.45;9.40;;;;;;;7.33;41.54;101582.31;5065974;28;20502;-61
2022/03/07 00:40:33;;;;;;;15.35;9.20;;;;;;;7.29;41.43;101580.72;5071924;28;20425;-61
2022/03/07 00:43:00;;;;;;;13.40;8.90;;;;;;;7.28;41.71;101585.06;5071889;28;20444;-61
2022/03/07 00:45:26;;;;;;;13.82;8.80;;;;;;;7.24;41.59;101583.44;5071789;28;20546;-61
2022/03/07 00:47:53;;;;;;;15.98;9.40;;;;;;;7.19;41.70;101586.19;5071993;28;20075;-61
2022/03/07 00:50:20;;;;;;;15.98;9.48;;;;;;;7.14;41.92;101590.69;5072219;28;20041;-61
2022/03/07 00:52:46;;;;;;;13.88;9.68;;;;;;;7.09;42.09;101584.75;5071290;28;20045;-61
2022/03/07 00:55:13;;;;;;;13.88;8.93;;;;;;;7.06;42.03;101587.44;5072207;28;20098;-61
2022/03/07 00:57:40;;;;;;;14.57;9.25;;;;;;;7.02;42.51;101580.59;5071881;28;20067;-61
2022/03/07 01:00:07;;;;;;;14.65;9.25;;;;;;;7.00;42.36;101574.56;5071862;28;20052;-63
2022/03/07 01:02:34;;;;;;;16.63;10.02;;;;;;;6.98;42.62;101587.66;5071538;28;20049;-61
2022/03/07 01:05:01;;;;;;;14.32;9.32;;;;;;;6.95;42.55;101579.91;5072133;28;20078;-61
2022/03/07 01:07:27;;;;;;;15.63;10.20;;;;;;;6.93;42.60;101584.34;5072169;28;20404;-62
2022/03/07 01:09:54;;;;;;;15.10;9.95;;;;;;;6.91;42.90;101580.91;5071306;28;20236;-62
2022/03/07 01:12:21;;;;;;;14.30;9.45;;;;;;;6.89;42.78;101580.06;5071957;28;20052;-62
2022/03/07 01:14:48;;;;;;;15.65;9.38;;;;;;;6.86;42.96;101570.59;5071600;28;20044;-61
2022/03/07 01:17:16;;;;;;;16.48;9.43;;;;;;;6.86;42.98;101569.75;5061829;28;20040;-61
2022/03/07 01:19:43;;;;;;;14.35;9.77;;;;;;;6.83;43.11;101575.91;5071607;28;20049;-62
2022/03/07 01:22:09;;;;;;;17.25;10.32;;;;;;;6.82;43.08;101566.34;5071679;28;20051;-61
2022/03/07 01:24:37;;;;;;;15.07;9.15;;;;;;;6.79;43.05;101566.47;5071413;28;20177;-61
2022/03/07 01:27:04;;;;;;;14.23;9.02;;;;;;;6.77;43.24;101570.84;5071454;28;20117;-61
2022/03/07 01:29:31;;;;;;;14.77;9.50;;;;;;;6.73;43.47;101571.84;5071556;28;20078;-61
2022/03/07 01:31:57;;;;;;;15.80;9.77;;;;;;;6.73;43.34;101573.56;5071385;28;20048;-61
2022/03/07 01:34:24;;;;;;;12.80;9.25;;;;;;;6.68;43.56;101558.91;5071689;28;20044;-62
2022/03/07 01:36:51;;;;;;;16.42;9.57;;;;;;;6.62;43.58;101558.22;5071285;28;20131;-62
2022/03/07 01:39:17;;;;;;;15.05;9.60;;;;;;;6.56;43.71;101555.78;5071502;28;20044;-61
2022/03/07 01:41:44;;;;;;;14.98;9.10;;;;;;;6.47;43.91;101557.72;5071354;28;20048;-62
2022/03/07 01:44:23;;;;;;;17.73;9.88;;;;;;;6.41;43.57;101559.63;5071632;28;20083;-61
2022/03/07 01:46:50;;;;;;;16.02;9.02;;;;;;;6.32;43.57;101556.38;5071605;28;20074;-61
2022/03/07 01:49:18;;;;;;;16.20;10.07;;;;;;;6.26;43.43;101548.72;5071434;28;20049;-62
2022/03/07 01:51:46;;;;;;;13.73;9.02;;;;;;;6.23;43.59;101550.56;5071424;28;20110;-61
2022/03/07 01:54:16;;;;;;;13.10;9.50;;;;;;;6.20;43.62;101548.88;5071642;28;20098;-63
2022/03/07 01:56:46;;;;;;;16.33;10.20;;;;;;;6.17;43.72;101539.38;5071451;28;20056;-62
2022/03/07 01:59:18;;;;;;;14.82;9.63;;;;;;;6.13;43.89;101532.56;5071466;28;20067;-62
2022/03/07 02:01:45;;;;;;;14.98;9.63;;;;;;;6.10;44.06;101530.00;5071341;28;20051;-62
2022/03/07 02:04:12;;;;;;;14.13;9.32;;;;;;;6.10;44.21;101531.75;5072184;28;20040;-62
2022/03/07 02:06:40;;;;;;;14.82;9.85;;;;;;;6.07;44.47;101540.53;5074759;28;20559;-62
2022/03/07 02:09:08;;;;;;;14.43;9.63;;;;;;;6.02;44.56;101537.16;5075301;28;20407;-62
2022/03/07 02:11:35;;;;;;;14.02;9.57;;;;;;;5.96;44.84;101538.13;5074826;28;20076;-62
2022/03/07 02:14:15;;;;;;;18.60;10.25;;;;;;;5.93;44.89;101543.44;5075243;28;20056;-63
2022/03/07 02:16:42;;;;;;;14.70;9.68;;;;;;;5.93;44.83;101537.34;5074764;28;20492;-62
2022/03/07 02:19:09;;;;;;;14.57;10.13;;;;;;;5.98;44.66;101535.47;5075323;28;20045;-62
2022/03/07 02:21:41;;;;;;;15.45;9.85;;;;;;;5.98;44.66;101528.56;5074789;28;20554;-62
2022/03/07 02:24:08;;;;;;;15.65;9.30;;;;;;;6.01;44.73;101533.69;5074632;28;20048;-62
2022/03/07 02:26:36;;;;;;;15.02;9.52;;;;;;;6.03;44.82;101526.72;5074397;28;20045;-62
2022/03/07 02:29:03;;;;;;;14.75;9.77;;;;;;;6.03;44.80;101523.22;5074777;28;20110;-62
2022/03/07 02:31:30;;;;;;;16.38;9.75;;;;;;;6.00;44.73;101523.31;5074276;28;20059;-62
2022/03/07 02:33:57;;;;;;;15.68;10.25;;;;;;;5.99;44.74;101524.19;5074441;28;20040;-62
2022/03/07 02:36:24;;;;;;;15.18;10.18;;;;;;;6.00;44.84;101524.16;5074067;28;20091;-61
2022/03/07 02:38:51;;;;;;;16.90;9.77;;;;;;;5.98;44.89;101525.97;5074194;28;20040;-62
2022/03/07 02:41:18;;;;;;;16.90;9.88;;;;;;;5.98;44.82;101520.75;5074063;28;20045;-62
2022/03/07 02:43:44;;;;;;;14.73;9.85;;;;;;;5.91;44.96;101523.53;5074434;28;20044;-62
2022/03/07 02:46:11;;;;;;;12.77;9.05;;;;;;;5.86;44.89;101527.06;5074473;28;20040;-61
2022/03/07 02:48:39;;;;;;;14.80;9.02;;;;;;;5.82;45.03;101529.81;5074630;28;20094;-61
2022/03/07 02:51:06;;;;;;;16.75;9.57;;;;;;;5.72;45.07;101529.16;5073968;28;20105;-62
2022/03/07 02:53:33;;;;;;;15.80;10.32;;;;;;;5.66;45.28;101519.75;5074110;28;20052;-64
2022/03/07 02:56:00;;;;;;;16.10;10.27;;;;;;;5.61;45.18;101526.81;5074147;28;20040;-62
2022/03/07 02:58:26;;;;;;;15.82;10.20;;;;;;;5.58;45.22;101526.88;5073881;28;20102;-61
2022/03/07 03:00:53;;;;;;;14.88;9.98;;;;;;;5.60;45.10;101521.63;5074020;28;20067;-61
2022/03/07 03:03:20;;;;;;;18.38;10.32;;;;;;;5.56;45.21;101524.31;5074388;28;20139;-62
2022/03/07 03:05:47;;;;;;;14.20;9.57;;;;;;;5.53;45.04;101529.56;5074266;28;20051;-62
2022/03/07 03:08:14;;;;;;;15.02;10.32;;;;;;;5.52;45.08;101524.41;5074120;28;20052;-63
2022/03/07 03:10:41;;;;;;;16.10;10.68;;;;;;;5.51;44.93;101527.91;5073740;28;20045;-63
2022/03/07 03:13:07;;;;;;;15.93;10.27;;;;;;;5.53;44.77;101521.78;5073909;28;20506;-61
2022/03/07 03:15:34;;;;;;;18.38;10.95;;;;;;;5.52;44.52;101527.88;5073386;28;20051;-61
2022/03/07 03:18:01;;;;;;;19.33;11.23;;;;;;;5.54;44.67;101527.84;5073787;28;20425;-62
2022/03/07 03:20:27;;;;;;;21.90;10.50;;;;;;;5.52;44.74;101522.69;5073991;28;20485;-63
2022/03/07 03:22:54;;;;;;;15.20;10.40;;;;;;;5.52;44.82;101521.81;5073749;28;20051;-61
2022/03/07 03:25:21;;;;;;;17.02;10.90;;;;;;;5.51;44.62;101520.09;5073727;28;20489;-63
2022/03/07 03:27:47;;;;;;;18.65;11.25;;;;;;;5.51;44.79;101522.69;5068586;28;20115;-62
2022/03/07 03:30:14;;;;;;;19.40;10.75;;;;;;;5.49;44.71;101520.13;5067937;28;20049;-61
2022/03/07 03:32:41;;;;;;;17.60;10.38;;;;;;;5.44;44.85;101515.94;5073026;28;20051;-61
2022/03/07 03:35:09;;;;;;;22.52;10.52;;;;;;;5.36;44.75;101516.97;5073763;28;20048;-62
2022/03/07 03:37:36;;;;;;;20.75;10.45;;;;;;;5.36;44.92;101526.53;5073448;28;20079;-62
2022/03/07 03:40:08;;;;;;;18.35;11.38;;;;;;;5.33;44.95;101519.66;5073326;28;20040;-62
2022/03/07 03:42:35;;;;;;;17.70;11.57;;;;;;;5.31;44.91;101521.41;5073519;28;20048;-62
2022/03/07 03:45:05;;;;;;;16.95;10.63;;;;;;;5.31;44.93;101518.81;5073246;28;20048;-62
2022/03/07 03:47:32;;;;;;;19.55;10.98;;;;;;;5.27;44.94;101519.78;5073439;28;20055;-63
2022/03/07 03:50:00;;;;;;;19.58;10.95;;;;;;;5.21;45.20;101518.16;5072917;28;20137;-62
2022/03/07 03:52:27;;;;;;;21.75;11.57;;;;;;;5.21;45.07;101523.34;5073293;28;20070;-62
2022/03/07 03:54:55;;;;;;;26.38;11.88;;;;;;;5.19;45.01;101527.75;5073023;28;20040;-62
2022/03/07 03:57:22;;;;;;;28.60;12.02;;;;;;;5.23;45.02;101529.38;5073146;28;20080;-62
2022/03/07 03:59:49;;;;;;;24.13;12.68;;;;;;;5.23;44.88;101520.72;5073053;28;20074;-61
2022/03/07 04:02:16;;;;;;;22.77;11.32;;;;;;;5.21;44.90;101531.16;5071133;28;20554;-62
2022/03/07 04:04:43;;;;;;;18.27;10.82;;;;;;;5.22;44.92;101534.63;5068589;28;20041;-61
2022/03/07 04:07:10;;;;;;;23.05;12.00;;;;;;;5.22;44.81;101530.28;5066490;28;20040;-61
2022/03/07 04:09:36;;;;;;;21.70;11.65;;;;;;;5.22;44.95;101530.28;5069744;28;20059;-62
2022/03/07 04:12:03;;;;;;;20.48;11.57;;;;;;;5.22;44.92;101527.66;5069272;28;20505;-61
2022/03/07 04:14:30;;;;;;;17.58;10.60;;;;;;;5.23;44.87;101531.13;5069300;28;20041;-62
2022/03/07 04:16:57;;;;;;;19.52;11.45;;;;;;;5.27;44.81;101526.69;5069454;28;20052;-61
2022/03/07 04:19:25;;;;;;;23.13;11.75;;;;;;;5.26;44.90;101531.06;5069159;28;20040;-62
2022/03/07 04:21:55;;;;;;;20.30;10.82;;;;;;;5.27;44.85;101529.31;5069443;28;20413;-61
2022/03/07 04:24:21;;;;;;;21.13;11.48;;;;;;;5.25;44.72;101526.75;5068867;28;20472;-61
2022/03/07 04:26:48;;;;;;;24.85;11.38;;;;;;;5.20;45.05;101528.59;5068730;28;20531;-61
2022/03/07 04:29:15;;;;;;;21.23;11.38;;;;;;;5.20;45.04;101533.78;5083268;28;20049;-61
2022/03/07 04:31:44;;;;;;;23.13;12.40;;;;;;;5.17;45.07;101528.66;5068957;28;20040;-60
2022/03/07 04:34:14;;;;;;;24.75;11.93;;;;;;;5.13;45.10;101533.09;5069146;28;20052;-61
2022/03/07 04:36:41;;;;;;;26.67;12.50;;;;;;;5.14;45.10;101528.72;5069023;28;20040;-61
2022/03/07 04:39:10;;;;;;;30.48;12.07;;;;;;;5.14;45.13;101533.91;5068888;28;20049;-59
2022/03/07 04:41:37;;;;;;;21.10;10.98;;;;;;;5.17;44.91;101532.13;5068443;28;20381;-60
2022/03/07 04:44:04;;;;;;;20.48;11.25;;;;;;;5.15;44.96;101535.63;5068794;28;20048;-58
2022/03/07 04:46:31;;;;;;;19.73;12.10;;;;;;;5.20;44.78;101541.59;5068688;28;20044;-59
2022/03/07 04:48:58;;;;;;;20.00;11.30;;;;;;;5.18;44.85;101541.63;5068603;28;20043;-59
2022/03/07 04:51:25;;;;;;;18.33;11.38;;;;;;;5.17;45.00;101544.28;5068834;28;20044;-59
2022/03/07 04:53:53;;;;;;;24.33;11.90;;;;;;;5.13;45.03;101546.09;5068659;28;20455;-61
2022/03/07 04:56:19;;;;;;;21.85;11.80;;;;;;;5.12;44.93;101553.94;5068864;28;20492;-61
2022/03/07 04:58:46;;;;;;;18.60;11.02;;;;;;;5.10;45.04;101553.09;5068705;28;20052;-61
2022/03/07 05:01:14;;;;;;;15.75;11.00;;;;;;;5.05;45.07;101561.84;5068669;28;20296;-61
2022/03/07 05:03:41;;;;;;;18.23;11.80;;;;;;;5.06;45.16;101565.31;5068525;28;20083;-61
2022/03/07 05:06:11;;;;;;;21.42;12.13;;;;;;;5.10;45.24;101563.50;5068971;28;20079;-61
2022/03/07 05:08:38;;;;;;;16.00;10.27;;;;;;;5.12;45.08;101566.94;5068564;28;20052;-61
2022/03/07 05:11:05;;;;;;;20.17;11.20;;;;;;;5.12;44.97;101570.38;5068794;28;20049;-60
2022/03/07 05:13:33;;;;;;;23.75;12.75;;;;;;;5.14;44.92;101568.63;5068564;28;20050;-61
2022/03/07 05:15:59;;;;;;;19.02;12.15;;;;;;;5.16;45.15;101574.63;5068376;28;20102;-62
2022/03/07 05:18:26;;;;;;;21.10;11.25;;;;;;;5.23;45.04;101572.75;5068381;28;20492;-61
2022/03/07 05:20:53;;;;;;;20.77;12.07;;;;;;;5.23;44.94;101578.81;5068563;28;20044;-62
2022/03/07 05:23:25;;;;;;;18.13;11.15;;;;;;;5.27;45.05;101576.16;5068460;28;20128;-62
2022/03/07 05:25:51;;;;;;;18.42;11.07;;;;;;;5.27;45.12;101574.41;5068287;28;20044;-62
2022/03/07 05:28:18;;;;;;;23.45;11.73;;;;;;;5.28;45.24;101570.06;5068551;28;20106;-61
2022/03/07 05:30:45;;;;;;;17.77;11.02;;;;;;;5.26;45.38;101571.81;5067884;28;20102;-61
2022/03/07 05:33:12;;;;;;;17.33;11.60;;;;;;;5.25;45.30;101580.53;5068024;28;20538;-61
2022/03/07 05:35:38;;;;;;;19.20;11.25;;;;;;;5.25;45.32;101580.53;5068405;28;20055;-61
2022/03/07 05:38:05;;;;;;;18.52;10.27;;;;;;;5.21;45.44;101575.38;5068456;28;20117;-61
2022/03/07 05:40:32;;;;;;;21.15;11.82;;;;;;;5.24;45.59;101577.06;5071662;28;20492;-61
2022/03/07 05:42:58;;;;;;;17.63;10.95;;;;;;;5.22;45.58;101579.72;5072234;28;20048;-61
2022/03/07 05:45:25;;;;;;;17.55;10.63;;;;;;;5.25;45.49;101584.00;5072358;28;20058;-61
2022/03/07 05:47:52;;;;;;;18.58;10.85;;;;;;;5.21;45.60;101588.41;5072187;28;20102;-61
2022/03/07 05:50:18;;;;;;;19.52;11.82;;;;;;;5.19;45.75;101585.00;5071098;28;20044;-63
2022/03/07 05:52:45;;;;;;;17.58;11.10;;;;;;;5.15;45.67;101587.69;5072169;28;20041;-61
2022/03/07 05:55:12;;;;;;;15.98;10.02;;;;;;;5.13;45.77;101592.91;5072258;28;20491;-61
2022/03/07 05:57:38;;;;;;;20.52;11.13;;;;;;;5.13;45.91;101594.63;5072195;28;20044;-59
2022/03/07 06:00:08;;;;;;;18.85;10.90;;;;;;;5.10;45.92;101592.97;5071789;28;20435;-58
2022/03/07 06:02:35;;;;;;;21.20;10.70;;;;;;;5.07;45.96;101593.88;5071816;28;20052;-61
2022/03/07 06:05:03;;;;;;;20.42;10.27;;;;;;;5.09;45.93;101604.25;5071801;28;20131;-61
2022/03/07 06:07:35;;;;;;;21.80;10.43;;;;;;;5.10;46.04;101611.16;5068446;28;20059;-59
2022/03/07 06:10:13;;;;;;;19.38;10.77;;;;;;;5.10;45.87;101621.56;5071497;28;20053;-59
2022/03/07 06:12:44;;;;;;;24.58;10.85;;;;;;;5.09;45.92;101617.25;5071204;28;20052;-61
2022/03/07 06:15:17;;;;;;;20.15;11.32;;;;;;;5.09;46.01;101616.41;5071316;28;20114;-66
2022/03/07 06:18:11;;;;;;;32.60;12.30;;;;;;;5.06;45.98;101610.38;5071563;28;20055;-62
2022/03/07 06:20:37;;;;;;;19.10;11.23;;;;;;;5.07;46.08;101613.84;5068560;28;20074;-65
2022/03/07 06:23:07;;;;;;;20.58;11.48;;;;;;;5.01;46.29;101616.56;5071466;28;20570;-62
2022/03/07 06:25:34;;;;;;;25.90;12.23;;;;;;;4.97;46.31;101610.56;5071222;28;20101;-62
2022/03/07 06:28:02;;;;;;;23.60;11.80;;;;;;;4.98;46.46;101611.44;5071014;28;20479;-62
2022/03/07 06:30:29;;;;;;;25.77;11.18;;;;;;;5.00;46.32;101609.66;5071124;28;20049;-62
2022/03/07 06:32:56;;;;;;;22.00;11.18;;;;;;;5.03;46.15;101615.66;5071332;28;20044;-64
2022/03/07 06:35:23;;;;;;;18.98;9.80;;;;;;;6.01;46.97;101616.22;5070917;28;20041;-60
2022/03/07 06:37:52;;;;;;;18.17;11.07;;;;;;;6.93;48.17;101617.38;5071203;28;20098;-62
2022/03/07 06:40:19;;;;;;;28.23;11.93;;;;;;;6.96;48.67;101622.53;5071837;28;20102;-62
2022/03/07 06:42:47;;;;;;;23.63;11.30;;;;;;;6.29;49.05;101615.56;5070896;28;20040;-62
2022/03/07 06:45:16;;;;;;;22.83;11.88;;;;;;;5.95;49.08;101613.72;5071018;28;20048;-62
2022/03/07 06:47:44;;;;;;;25.58;12.63;;;;;;;5.77;48.91;101628.03;5070947;28;20227;-61
2022/03/07 06:50:12;;;;;;;20.60;11.88;;;;;;;5.68;48.70;101629.09;5070825;28;20044;-61
2022/03/07 06:52:39;;;;;;;32.58;12.25;;;;;;;6.00;48.21;101625.75;5070685;28;20090;-61
2022/03/07 06:55:06;;;;;;;23.75;13.02;;;;;;;5.80;48.19;101631.44;5070915;28;20496;-61
2022/03/07 06:57:33;;;;;;;29.92;12.73;;;;;;;5.80;47.83;101640.97;5070778;28;20115;-61
2022/03/07 07:00:00;;;;;;;31.02;13.45;;;;;;;5.83;47.58;101636.56;5070647;28;20040;-62
2022/03/07 07:02:26;;;;;;;23.05;11.43;;;;;;;5.93;47.31;101641.53;5071047;28;20053;-63
2022/03/07 07:04:54;;;;;;;25.70;12.27;;;;;;;6.03;46.78;101635.25;5070589;28;20044;-62
2022/03/07 07:07:20;;;;;;;24.17;12.27;;;;;;;6.71;46.43;101638.81;5070027;28;20102;-61
2022/03/07 07:09:47;;;;;;;19.00;12.07;;;;;;;6.59;46.01;101637.41;5070128;28;20070;-62
2022/03/07 07:12:13;;;;;;;22.77;12.93;;;;;;;6.65;45.61;101634.63;5071021;28;20584;-61
2022/03/07 07:14:40;;;;;;;22.88;13.85;;;;;;;6.75;45.40;101642.22;5069145;28;20449;-61
2022/03/07 07:17:07;;;;;;;22.27;12.25;;;;;;;6.83;45.23;101638.50;5069835;28;20106;-61
2022/03/07 07:19:33;;;;;;;20.60;12.15;;;;;;;6.97;44.86;101645.09;5069495;28;20048;-61
2022/03/07 07:22:00;;;;;;;23.70;11.98;;;;;;;7.05;44.87;101647.50;5070106;28;20054;-61
2022/03/07 07:24:27;;;;;;;22.45;12.93;;;;;;;7.16;44.42;101648.94;5070105;28;20044;-61
2022/03/07 07:26:54;;;;;;;27.50;12.95;;;;;;;7.32;44.15;101643.28;5069525;28;20044;-61
2022/03/07 07:29:21;;;;;;;27.63;13.63;;;;;;;7.49;43.45;101650.59;5069798;28;20056;-62
2022/03/07 07:31:51;;;;;;;26.45;12.27;;;;;;;7.63;43.42;101647.59;5069484;28;20072;-62
2022/03/07 07:34:19;;;;;;;21.10;12.32;;;;;;;7.77;43.32;101655.91;5069155;28;20044;-62
2022/03/07 07:36:46;;;;;;;20.90;12.55;;;;;;;7.87;43.00;101655.59;5069141;28;20098;-62
2022/03/07 07:39:13;;;;;;;20.35;12.52;;;;;;;7.90;43.03;101661.59;5069928;28;20481;-62
2022/03/07 07:41:39;;;;;;;27.25;12.82;;;;;;;8.09;42.67;101666.28;5069611;28;20047;-62
2022/03/07 07:44:06;;;;;;;21.27;12.13;;;;;;;8.29;42.40;101661.25;5068866;28;20385;-62
2022/03/07 07:46:33;;;;;;;18.15;11.70;;;;;;;8.47;41.85;101656.38;5069582;28;20051;-62
2022/03/07 07:49:00;;;;;;;21.10;12.23;;;;;;;8.60;41.84;101659.41;5068841;28;20087;-61
2022/03/07 07:51:27;;;;;;;20.90;11.75;;;;;;;8.72;41.17;101653.75;5069928;28;20049;-62
2022/03/07 07:53:54;;;;;;;16.88;9.45;;;;;;;9.42;40.58;101656.53;5069250;28;20044;-61
2022/03/07 07:56:20;;;;;;;14.32;8.77;;;;;;;10.38;41.73;101664.19;5069560;28;20106;-61
2022/03/07 07:58:47;;;;;;;14.75;8.82;;;;;;;10.97;42.32;101650.38;5069637;28;20060;-61
2022/03/07 08:01:14;;;;;;;15.77;9.55;;;;;;;11.35;42.68;101656.56;5069408;28;20049;-62
2022/03/07 08:03:41;;;;;;;14.82;9.32;;;;;;;11.80;42.63;101656.31;5064906;28;20051;-63
2022/03/07 08:06:08;;;;;;;19.27;11.18;;;;;;;11.35;42.36;101653.94;5069051;28;20044;-62
2022/03/07 08:08:34;;;;;;;18.98;10.98;;;;;;;11.03;40.99;101658.84;5068283;28;20048;-61
2022/03/07 08:11:01;;;;;;;14.43;10.02;;;;;;;10.91;40.23;101656.75;5068799;28;20118;-61
2022/03/07 08:13:27;;;;;;;16.95;10.85;;;;;;;10.88;38.89;101657.75;5068555;28;20041;-62
2022/03/07 08:15:54;;;;;;;15.80;10.15;;;;;;;10.94;38.06;101660.13;5068592;28;20072;-62
2022/03/07 08:18:21;;;;;;;16.02;10.48;;;;;;;11.02;37.21;101665.03;5064933;28;20051;-62
2022/03/07 08:20:51;;;;;;;16.10;10.73;;;;;;;11.10;36.20;101660.28;5067708;28;20107;-61
2022/03/07 08:23:17;;;;;;;15.35;10.23;;;;;;;11.14;35.77;101670.66;5068074;28;20515;-66
2022/03/07 08:25:44;;;;;;;14.55;9.80;;;;;;;11.17;35.00;101660.84;5067924;28;20046;-62
2022/03/07 08:28:12;;;;;;;16.98;9.95;;;;;;;11.21;34.30;101666.81;5067798;28;20055;-63
2022/03/07 08:30:39;;;;;;;16.92;10.57;;;;;;;11.26;33.92;101663.09;5067126;28;20052;-61
2022/03/07 08:33:06;;;;;;;15.82;10.82;;;;;;;11.48;33.17;101661.25;5068615;28;20087;-62
2022/03/07 08:35:32;;;;;;;13.45;9.93;;;;;;;11.54;32.78;101659.22;5068265;28;20429;-63
2022/03/07 08:38:00;;;;;;;15.13;8.85;;;;;;;11.72;32.02;101652.25;5067421;28;20086;-62
2022/03/07 08:40:27;;;;;;;16.27;10.55;;;;;;;11.90;31.69;101655.78;5068010;28;20048;-62
2022/03/07 08:42:54;;;;;;;12.27;7.07;;;;;;;12.13;31.99;101658.28;5068356;28;20086;-64
2022/03/07 08:45:25;;;;;;;13.27;6.97;;;;;;;12.79;34.05;101651.50;5068201;28;20397;-62
2022/03/07 08:48:11;;;;;;;15.52;9.75;;;;;;;12.74;34.79;101654.34;5068099;28;20405;-61
2022/03/07 08:50:38;;;;;;;14.35;10.48;;;;;;;12.32;34.62;101651.16;5068257;28;20106;-62
2022/03/07 08:53:05;;;;;;;14.15;10.55;;;;;;;12.69;33.13;101651.09;5068384;28;20049;-66
2022/03/07 08:55:31;;;;;;;16.30;10.25;;;;;;;12.61;32.45;101654.13;5065139;28;20044;-62
2022/03/07 08:57:58;;;;;;;15.27;9.90;;;;;;;12.87;31.49;101652.81;5065924;28;20078;-62
2022/03/07 09:00:25;;;;;;;13.95;9.60;;;;;;;12.98;30.97;101661.94;5067757;28;20121;-65
2022/03/07 09:02:52;;;;;;;14.35;10.55;;;;;;;13.10;30.47;101660.44;5068196;28;20416;-62
2022/03/07 09:05:18;;;;;;;16.60;10.48;;;;;;;13.20;30.01;101656.38;5068174;28;20043;-61
2022/03/07 09:07:45;;;;;;;14.25;9.85;;;;;;;13.20;29.55;101662.50;5067757;28;20132;-62
2022/03/07 09:10:12;;;;;;;15.00;9.88;;;;;;;13.37;29.25;101661.63;5068398;28;20565;-61
2022/03/07 09:12:38;;;;;;;14.90;9.65;;;;;;;13.38;29.17;101658.06;5067845;28;20066;-62
2022/03/07 09:15:06;;;;;;;13.70;9.27;;;;;;;13.46;29.03;101656.78;5067656;28;20102;-62
2022/03/07 09:17:32;;;;;;;14.60;10.23;;;;;;;13.45;29.15;101655.09;5067863;28;20044;-60
2022/03/07 09:19:59;;;;;;;16.00;9.93;;;;;;;13.76;28.57;101658.69;5068163;28;20049;-60
2022/03/07 09:22:29;;;;;;;14.70;10.10;;;;;;;13.88;28.56;101660.66;5067607;28;20042;-61
2022/03/07 09:24:56;;;;;;;13.73;10.02;;;;;;;13.89;28.33;101662.34;5067464;28;20052;-60
2022/03/07 09:27:23;;;;;;;15.55;10.32;;;;;;;13.94;28.30;101665.59;5067407;28;20056;-61
2022/03/07 09:29:50;;;;;;;12.07;9.15;;;;;;;14.05;27.96;101657.06;5067541;28;20064;-61
2022/03/07 09:32:17;;;;;;;13.48;9.55;;;;;;;14.16;27.71;101665.22;5067396;28;20048;-61
2022/03/07 09:34:44;;;;;;;14.27;10.40;;;;;;;14.24;27.84;101658.66;5067906;28;20056;-61
2022/03/07 09:37:11;;;;;;;18.48;13.15;;;;;;;14.45;27.39;101661.81;5067781;28;20059;-61
2022/03/07 09:39:38;;;;;;;14.95;10.45;;;;;;;14.65;27.14;101660.69;5067895;28;20044;-61
2022/03/07 09:42:06;;;;;;;12.43;9.77;;;;;;;14.85;27.00;101649.81;5064933;28;20040;-63
2022/03/07 09:44:33;;;;;;;13.45;9.73;;;;;;;14.96;26.57;101653.59;5067819;28;20055;-60
2022/03/07 09:47:02;;;;;;;15.90;10.52;;;;;;;14.87;26.68;101647.06;5067454;28;20404;-62
2022/03/07 09:49:30;;;;;;;17.13;12.93;;;;;;;15.01;26.50;101649.69;5067734;28;20542;-61
2022/03/07 09:51:56;;;;;;;14.98;9.68;;;;;;;15.32;26.41;101654.91;5067406;28;20109;-60
2022/03/07 09:54:24;;;;;;;15.93;10.40;;;;;;;15.29;25.98;101647.16;5067831;28;20390;-60
2022/03/07 09:56:51;;;;;;;14.95;10.75;;;;;;;15.43;25.63;101649.78;5067525;28;20086;-61
2022/03/07 09:59:19;;;;;;;14.48;10.27;;;;;;;15.56;25.56;101649.03;5068030;28;20053;-61
2022/03/07 10:02:02;;;;;;;18.48;13.23;;;;;;;15.70;25.32;101651.63;5067520;28;20059;-61
2022/03/07 10:04:30;;;;;;;14.50;9.80;;;;;;;15.66;25.14;101639.56;5067382;28;20389;-61
2022/03/07 10:07:01;;;;;;;20.98;14.18;;;;;;;15.88;25.04;101636.38;5066984;28;20052;-61
2022/03/07 10:09:28;;;;;;;17.83;11.88;;;;;;;16.04;24.76;101636.25;5067726;28;20099;-61
2022/03/07 10:12:03;;;;;;;15.07;10.40;;;;;;;16.23;24.67;101630.59;5067182;28;20143;-61
2022/03/07 10:14:34;;;;;;;15.23;10.45;;;;;;;16.40;24.59;101623.31;5057984;28;20094;-61
2022/03/07 10:17:00;;;;;;;17.98;12.40;;;;;;;16.31;24.59;101622.13;5067057;28;20052;-60
2022/03/07 10:19:28;;;;;;;59.88;35.45;;;;;;;16.29;24.46;101631.97;5067598;28;20045;-61
2022/03/07 10:21:55;;;;;;;38.53;22.92;;;;;;;16.45;24.71;101629.97;5066830;28;20209;-60
2022/03/07 10:24:37;;;;;;;18.02;11.60;;;;;;;16.73;25.68;101633.41;5067155;28;20826;-60
2022/03/07 10:27:04;;;;;;;13.02;10.07;;;;;;;17.08;26.47;101616.91;5064962;28;20044;-61
2022/03/07 10:29:30;;;;;;;14.80;10.75;;;;;;;17.33;27.68;101625.78;5070477;28;20052;-61
2022/03/07 10:31:58;;;;;;;15.02;9.80;;;;;;;17.40;28.38;101628.84;5071024;28;20053;-60
2022/03/07 10:34:26;;;;;;;13.45;9.57;;;;;;;17.37;28.64;101623.75;5068262;28;20048;-60
2022/03/07 10:36:53;;;;;;;13.43;10.40;;;;;;;17.49;28.28;101616.72;5069645;28;20052;-60
2022/03/07 10:39:25;;;;;;;15.82;10.98;;;;;;;17.74;28.22;101608.66;5070315;28;20087;-60
2022/03/07 10:41:53;;;;;;;16.15;10.40;;;;;;;17.84;28.21;101608.84;5065338;28;20036;-61
2022/03/07 10:44:31;;;;;;;18.25;12.00;;;;;;;17.92;27.60;101600.31;5069985;28;20473;-65
2022/03/07 10:47:05;;;;;;;16.55;11.18;;;;;;;18.04;27.41;101595.91;5068851;28;20151;-61
2022/03/07 10:49:33;;;;;;;15.45;10.73;;;;;;;18.24;27.51;101586.44;5070266;28;20067;-61
2022/03/07 10:52:03;;;;;;;18.13;11.05;;;;;;;18.13;27.12;101581.09;5069730;28;20076;-60
2022/03/07 10:54:36;;;;;;;16.92;10.85;;;;;;;18.10;26.90;101585.66;5067783;28;20040;-60
2022/03/07 10:57:03;;;;;;;117.68;64.13;;;;;;;18.10;27.08;101590.16;5070060;28;20040;-60
2022/03/07 10:59:34;;;;;;;148.48;83.40;;;;;;;18.31;26.59;101581.50;5070105;28;20036;-61
2022/03/07 11:02:09;;;;;;;26.73;18.53;;;;;;;18.22;26.46;101578.59;5069800;28;20048;-60
2022/03/07 11:04:38;;;;;;;17.20;11.82;;;;;;;18.25;25.41;101577.50;5069807;28;20132;-61
2022/03/07 11:07:06;;;;;;;20.55;15.23;;;;;;;17.90;25.35;101575.66;5069156;28;20123;-61
2022/03/07 11:09:33;;;;;;;49.63;32.00;;;;;;;17.74;25.27;101570.66;5069323;28;20051;-60
2022/03/07 11:12:01;;;;;;;41.95;29.27;;;;;;;17.97;24.39;101563.66;5068889;28;20041;-65
2022/03/07 11:14:28;;;;;;;14.95;11.63;;;;;;;18.17;24.14;101563.94;5069305;28;20059;-65
2022/03/07 11:16:56;;;;;;;13.70;10.63;;;;;;;18.07;24.00;101562.00;5069131;28;20044;-61
2022/03/07 11:19:27;;;;;;;18.35;14.73;;;;;;;18.07;23.60;101561.16;5069652;28;20068;-65